Forside
METAR-TAF:

METAR-TAF

Lufthavne :

Marham, England

Breddekreds: 52-39N, længdekreds: 000-34E, højde: 23 m

Aktuelle vejr

Denne rapport blev lavet for 40 minutter siden, kl. 12:50 UTC
Vind 9 kt fra nordnordøst
Temperatur 10°C
Fugtighed 50%
Tryk 1032 hPa
Sigt 10 km eller mere
Spredte skyer i en højde af 4000 ft

METAR: EGYM 311250Z 02009KT 9999 SCT040 10/00 Q1032 NOSIG RMK BLU BLU

Tid: 14:30 (13:30 UTC)

Vejrudsigter

Denne rapport blev lavet for 3 timer og 15 minutter siden, kl. 10:15 UTC
Foreløbig gælder fra 31 på 12 UTC til 31 på 18 UTC
Vind 10 kt fra nordøst
Sigt 10 km eller mere
Nogle få skyer i en højde af 3500 ft

TAF: EGYM 311015Z 3112/3118 05010KT 9999 FEW035

Vejrobservationer og prognoser fra mere end 4000 lufthavne (METAR og TAF).

De gule og røde prikker repræsenterer de meteorologiske stationer.

Flyt musen over at se navnet på stationen.

Så klik over at se vejr observationer og prognoser.

At skifte det kort: Klik på de grønne knapper med et sort kors for at zoome ind; på den grønne knap med en bindestreg for at zoome ud; eller på de grønne pile for tilstødende kort.


METAR-TAF: